createdAt,value
2019-03-10T00:00:24.003Z,83.9
2019-03-10T00:00:51.023Z,83.81
2019-03-10T00:01:17.638Z,83.9
2019-03-10T00:01:44.178Z,83.33
2019-03-10T00:02:10.967Z,83.52
2019-03-10T00:02:37.719Z,83.62
2019-03-10T00:03:04.164Z,83.52
2019-03-10T00:03:30.592Z,83.33
2019-03-10T00:03:57.170Z,83.04
2019-03-10T00:04:23.977Z,82.95
2019-03-10T00:04:50.451Z,83.14
2019-03-10T00:05:17.063Z,82.86
2019-03-10T00:05:43.472Z,82.57
2019-03-10T00:06:09.934Z,82.67
2019-03-10T00:06:36.451Z,82.57
2019-03-10T00:07:03.333Z,82.57
2019-03-10T00:07:29.776Z,82.38
2019-03-10T00:07:56.043Z,82.38
2019-03-10T00:08:23.143Z,82.76
2019-03-10T00:08:49.267Z,82.86
2019-03-10T00:09:15.348Z,82.67
2019-03-10T00:09:41.449Z,82.86
2019-03-10T00:10:07.587Z,82.28
2019-03-10T00:10:33.690Z,81.9
2019-03-10T00:10:59.795Z,82.28
2019-03-10T00:11:25.906Z,82.57
2019-03-10T00:11:52.111Z,82.67
2019-03-10T00:12:18.210Z,82.38
2019-03-10T00:12:44.317Z,82.57
2019-03-10T00:13:10.451Z,82.67
2019-03-10T00:13:36.558Z,82.76
2019-03-10T00:14:02.667Z,83.52
2019-03-10T00:14:28.809Z,82.95
2019-03-10T00:14:54.914Z,82.95
2019-03-10T00:15:21.096Z,83.04
2019-03-10T00:15:47.200Z,82.86
2019-03-10T00:16:13.310Z,82.57
2019-03-10T00:16:39.413Z,82.86
2019-03-10T00:17:05.522Z,82.57
2019-03-10T00:17:31.633Z,82.67
2019-03-10T00:17:57.795Z,82.57
2019-03-10T00:18:23.906Z,82.95
2019-03-10T00:18:50.006Z,82.76
2019-03-10T00:19:16.116Z,82.76
2019-03-10T00:19:42.245Z,82.48
2019-03-10T00:20:08.398Z,82.76
2019-03-10T00:20:34.548Z,82.48
2019-03-10T00:21:00.660Z,82.28
2019-03-10T00:21:26.760Z,82.57
2019-03-10T00:21:52.874Z,82.86
2019-03-10T00:22:18.977Z,82.95
2019-03-10T00:22:45.081Z,82.95
2019-03-10T00:23:11.185Z,83.23
2019-03-10T00:23:37.293Z,83.23
2019-03-10T00:24:03.399Z,83.42
2019-03-10T00:24:29.508Z,82.95
2019-03-10T00:24:55.610Z,82.95
2019-03-10T00:25:21.729Z,83.52
2019-03-10T00:25:47.823Z,83.23
2019-03-10T00:26:13.934Z,83.14
2019-03-10T00:26:41.028Z,83.33
2019-03-10T00:27:07.281Z,83.23
2019-03-10T00:27:33.388Z,82.86
2019-03-10T00:27:59.494Z,82.48
2019-03-10T00:28:25.600Z,82.86
2019-03-10T00:28:51.702Z,82.95
2019-03-10T00:29:17.806Z,82.95
2019-03-10T00:29:43.905Z,82.95
2019-03-10T00:30:10.014Z,82.57
2019-03-10T00:30:36.122Z,82.67
2019-03-10T00:31:02.225Z,82.57
2019-03-10T00:31:28.335Z,82.57
2019-03-10T00:31:54.444Z,83.23
2019-03-10T00:32:20.550Z,83.04
2019-03-10T00:32:46.664Z,83.71
2019-03-10T00:33:12.830Z,83.33
2019-03-10T00:33:38.925Z,83.33
2019-03-10T00:34:05.037Z,83.33
2019-03-10T00:34:32.142Z,83.42
2019-03-10T00:34:58.233Z,82.95
2019-03-10T00:35:24.349Z,82.95
2019-03-10T00:35:50.461Z,82.95
2019-03-10T00:36:16.567Z,83.14
2019-03-10T00:36:42.676Z,83.14
2019-03-10T00:37:08.806Z,83.19
2019-03-10T00:37:34.916Z,83.1
2019-03-10T00:38:01.046Z,83.42
2019-03-10T00:38:27.148Z,83.42
2019-03-10T00:38:53.257Z,83.23
2019-03-10T00:39:19.366Z,83.81
2019-03-10T00:39:45.464Z,83.62
2019-03-10T00:40:11.574Z,83.33
2019-03-10T00:40:37.680Z,83.58
2019-03-10T00:41:03.794Z,83.33
2019-03-10T00:41:29.882Z,83.14
2019-03-10T00:41:56.013Z,83.23
2019-03-10T00:42:22.149Z,83.33
2019-03-10T00:42:48.257Z,83.42
2019-03-10T00:43:14.364Z,83.33
2019-03-10T00:43:40.470Z,83.14
2019-03-10T00:44:06.582Z,83.1
2019-03-10T00:44:32.694Z,83.52
2019-03-10T00:44:58.817Z,83.14
2019-03-10T00:45:24.931Z,83.23
2019-03-10T00:45:51.035Z,83.14
2019-03-10T00:46:17.140Z,83.1
2019-03-10T00:46:43.250Z,83.23
2019-03-10T00:47:09.360Z,83.67
2019-03-10T00:47:35.461Z,83.42
2019-03-10T00:48:01.565Z,83.14
2019-03-10T00:48:27.690Z,83.14
2019-03-10T00:48:53.796Z,82.95
2019-03-10T00:49:19.965Z,83.14
2019-03-10T00:49:46.059Z,83.04
2019-03-10T00:50:12.171Z,83.42
2019-03-10T00:50:38.297Z,82.86
2019-03-10T00:51:04.428Z,83.42
2019-03-10T00:51:30.562Z,83.29
2019-03-10T00:51:56.672Z,83.14
2019-03-10T00:52:22.809Z,83.42
2019-03-10T00:52:48.915Z,83.52
2019-03-10T00:53:15.025Z,83.23
2019-03-10T00:53:41.134Z,83.23
2019-03-10T00:54:07.264Z,83
2019-03-10T00:54:33.372Z,83.39
2019-03-10T00:54:59.490Z,83.86
2019-03-10T00:55:25.629Z,83.67
2019-03-10T00:55:51.741Z,83.48
2019-03-10T00:56:17.837Z,83.29
2019-03-10T00:56:43.976Z,83
2019-03-10T00:57:10.079Z,83.48
2019-03-10T00:57:36.183Z,83
2019-03-10T00:58:02.288Z,83.58
2019-03-10T00:58:28.407Z,83.48
2019-03-10T00:58:54.535Z,84.24
2019-03-10T00:59:20.639Z,83.95
2019-03-10T00:59:46.773Z,84.52
2019-03-10T01:00:12.876Z,84.43
2019-03-10T01:00:39.016Z,83.95
2019-03-10T01:01:05.122Z,84.33
2019-03-10T01:01:31.231Z,83.86
2019-03-10T01:01:57.357Z,83.95
2019-03-10T01:02:23.499Z,84.33
2019-03-10T01:02:49.604Z,84.33
2019-03-10T01:03:15.740Z,84.28
2019-03-10T01:03:41.855Z,84.14
2019-03-10T01:04:07.962Z,83.71
2019-03-10T01:04:34.071Z,83.76
2019-03-10T01:05:00.310Z,83.52
2019-03-10T01:05:26.375Z,83.67
2019-03-10T01:05:52.477Z,83.39
2019-03-10T01:06:18.589Z,83.71
2019-03-10T01:06:44.698Z,83.71
2019-03-10T01:07:11.792Z,83.76
2019-03-10T01:07:37.898Z,83.67
2019-03-10T01:08:04.035Z,83.76
2019-03-10T01:08:30.140Z,83.95
2019-03-10T01:08:56.247Z,83.67
2019-03-10T01:09:22.351Z,83.86
2019-03-10T01:09:48.464Z,83.67
2019-03-10T01:10:14.559Z,83.58
2019-03-10T01:10:40.671Z,83.71
2019-03-10T01:11:06.775Z,83.9
2019-03-10T01:11:32.884Z,83.04
2019-03-10T01:11:58.990Z,83.58
2019-03-10T01:12:25.457Z,82.95
2019-03-10T01:12:51.566Z,83.14
2019-03-10T01:13:17.679Z,83.23
2019-03-10T01:13:43.779Z,83.42
2019-03-10T01:14:09.891Z,83.52
2019-03-10T01:14:36.001Z,83.42
2019-03-10T01:15:02.138Z,83.71
2019-03-10T01:15:28.245Z,83.39
2019-03-10T01:15:54.370Z,83.23
2019-03-10T01:16:20.481Z,83.52
2019-03-10T01:16:46.583Z,83.52
2019-03-10T01:17:12.691Z,82.91
2019-03-10T01:17:38.802Z,83.33
2019-03-10T01:18:04.930Z,83.04
2019-03-10T01:18:31.037Z,83.29
2019-03-10T01:18:57.149Z,83.71
2019-03-10T01:19:23.249Z,83.42
2019-03-10T01:19:49.360Z,83.14
2019-03-10T01:20:15.463Z,83.14
2019-03-10T01:20:41.587Z,83.14
2019-03-10T01:21:07.704Z,83.33
2019-03-10T01:21:33.830Z,83.14
2019-03-10T01:21:59.933Z,83.23
2019-03-10T01:22:26.040Z,83.62
2019-03-10T01:22:52.146Z,83.62
2019-03-10T01:23:18.248Z,83.33
2019-03-10T01:23:44.351Z,83.14
2019-03-10T01:24:10.456Z,83.52
2019-03-10T01:24:36.560Z,83.62
2019-03-10T01:25:02.658Z,83.33
2019-03-10T01:25:28.758Z,83.71
2019-03-10T01:25:54.866Z,83.42
2019-03-10T01:26:20.994Z,83.04
2019-03-10T01:26:47.099Z,83.14
2019-03-10T01:27:13.209Z,82.86
2019-03-10T01:27:39.315Z,83.14
2019-03-10T01:28:05.423Z,83.33
2019-03-10T01:28:31.527Z,83.04
2019-03-10T01:28:57.637Z,83.23
2019-03-10T01:29:23.766Z,83.14
2019-03-10T01:29:49.867Z,83.33
2019-03-10T01:30:16.080Z,82.95
2019-03-10T01:30:42.183Z,82.86
2019-03-10T01:31:08.286Z,83.1
2019-03-10T01:31:34.397Z,83.1
2019-03-10T01:32:00.500Z,83.19
2019-03-10T01:32:26.610Z,83.04
2019-03-10T01:32:52.734Z,83.33
2019-03-10T01:33:18.840Z,83.33
2019-03-10T01:33:44.949Z,83.42
2019-03-10T01:34:11.051Z,83.14
2019-03-10T01:34:37.156Z,83.04
2019-03-10T01:35:03.261Z,83.29
2019-03-10T01:35:29.368Z,83.58
2019-03-10T01:35:55.477Z,83.48
2019-03-10T01:36:21.608Z,83.71
2019-03-10T01:36:47.708Z,83.19
2019-03-10T01:37:13.818Z,83.39
2019-03-10T01:37:39.922Z,83.48
2019-03-10T01:38:06.029Z,83.29
2019-03-10T01:38:32.140Z,83.95
2019-03-10T01:38:58.274Z,83.95
2019-03-10T01:39:24.371Z,83.86
2019-03-10T01:39:50.518Z,83.67
2019-03-10T01:40:16.646Z,83.76
2019-03-10T01:40:42.790Z,84.14
2019-03-10T01:41:08.932Z,84.24
2019-03-10T01:41:35.036Z,84.52
2019-03-10T01:42:01.173Z,84.43
2019-03-10T01:42:27.277Z,83.48
2019-03-10T01:42:53.385Z,83.76
2019-03-10T01:43:19.499Z,83.48
2019-03-10T01:43:45.606Z,83.67
2019-03-10T01:44:11.742Z,83.86
2019-03-10T01:44:37.854Z,83.76
2019-03-10T01:45:03.970Z,83.67
2019-03-10T01:45:30.128Z,83.67
2019-03-10T01:45:56.232Z,83.67
2019-03-10T01:46:22.372Z,83.86
2019-03-10T01:46:48.480Z,83.95
2019-03-10T01:47:14.585Z,83.86
2019-03-10T01:47:40.696Z,83.86
2019-03-10T01:48:06.797Z,83.58
2019-03-10T01:48:32.904Z,84.33
2019-03-10T01:48:59.041Z,84.33
2019-03-10T01:49:25.136Z,83.95
2019-03-10T01:49:51.246Z,83.48
2019-03-10T01:50:17.353Z,83.86
2019-03-10T01:50:43.456Z,83.95
2019-03-10T01:51:09.559Z,83.67
2019-03-10T01:51:35.666Z,83.86
2019-03-10T01:52:01.771Z,83.95
2019-03-10T01:52:27.884Z,83.76
2019-03-10T01:52:53.988Z,83.48
2019-03-10T01:53:25.404Z,83.76
2019-03-10T01:53:48.179Z,83.58
2019-03-10T01:54:14.354Z,83.48
2019-03-10T01:54:40.560Z,83.58
2019-03-10T01:55:06.665Z,83.39
2019-03-10T01:55:32.800Z,83.48
2019-03-10T01:55:58.935Z,83.48
2019-03-10T01:56:25.045Z,83.39
2019-03-10T01:56:51.149Z,83.14
2019-03-10T01:57:17.259Z,83.1
2019-03-10T01:57:43.359Z,82.91
2019-03-10T01:58:09.470Z,83.29
2019-03-10T01:58:35.574Z,83.95
2019-03-10T01:59:01.680Z,83.76
2019-03-10T01:59:27.784Z,83.86
2019-03-10T01:59:53.895Z,84.14
2019-03-10T02:00:19.997Z,83.76
2019-03-10T02:00:46.101Z,83.86
2019-03-10T02:01:12.207Z,83.76
2019-03-10T02:01:38.308Z,83.67
2019-03-10T02:02:04.419Z,83.1
2019-03-10T02:02:31.513Z,83.19
2019-03-10T02:02:57.616Z,83
2019-03-10T02:03:23.719Z,83.48
2019-03-10T02:03:49.830Z,84.05
2019-03-10T02:04:15.936Z,83.76
2019-03-10T02:04:42.039Z,83.95
2019-03-10T02:05:08.156Z,83.76
2019-03-10T02:05:34.244Z,83.95
2019-03-10T02:06:00.348Z,83.67
2019-03-10T02:06:26.476Z,83.95
2019-03-10T02:06:52.620Z,83.86
2019-03-10T02:07:18.725Z,83.48
2019-03-10T02:07:44.831Z,84.05
2019-03-10T02:08:10.962Z,83.95
2019-03-10T02:08:37.075Z,83.76
2019-03-10T02:09:03.179Z,83.29
2019-03-10T02:09:29.283Z,83.48
2019-03-10T02:09:55.391Z,83.48
2019-03-10T02:10:21.501Z,83.48
2019-03-10T02:10:47.616Z,83.1
2019-03-10T02:11:13.745Z,82.95
2019-03-10T02:11:39.891Z,82.81
2019-03-10T02:12:05.990Z,83.19
2019-03-10T02:12:32.119Z,83.1
2019-03-10T02:12:58.226Z,83.19
2019-03-10T02:13:24.331Z,83
2019-03-10T02:13:50.440Z,83.39
2019-03-10T02:14:16.546Z,83.19
2019-03-10T02:14:42.677Z,83.19
2019-03-10T02:15:08.817Z,82.91
2019-03-10T02:15:34.924Z,82.71
2019-03-10T02:16:01.031Z,82.67
2019-03-10T02:16:27.142Z,82.86
2019-03-10T02:16:53.270Z,82.67
2019-03-10T02:17:19.402Z,82.76
2019-03-10T02:17:45.501Z,82.28
2019-03-10T02:18:11.608Z,82.76
2019-03-10T02:18:37.710Z,82.86
2019-03-10T02:19:03.818Z,81.9
2019-03-10T02:19:29.921Z,82.38
2019-03-10T02:19:56.035Z,82.38
2019-03-10T02:20:22.139Z,81.81
2019-03-10T02:20:48.245Z,81.9
2019-03-10T02:21:14.354Z,81.81
2019-03-10T02:21:40.487Z,81.62
2019-03-10T02:22:06.585Z,82.28
2019-03-10T02:22:32.695Z,82.09
2019-03-10T02:22:58.803Z,82.19
2019-03-10T02:23:24.909Z,82
2019-03-10T02:23:51.049Z,81.71
2019-03-10T02:24:23.596Z,81.43
2019-03-10T02:24:45.167Z,81.43
2019-03-10T02:25:11.273Z,81.62
2019-03-10T02:25:37.422Z,81.62
2019-03-10T02:26:03.524Z,81.62
2019-03-10T02:26:29.635Z,81.81
2019-03-10T02:26:55.767Z,81.71
2019-03-10T02:27:21.867Z,82
2019-03-10T02:27:47.980Z,81.62
2019-03-10T02:28:14.085Z,81.52
2019-03-10T02:28:40.197Z,81.24
2019-03-10T02:29:06.298Z,81.71
2019-03-10T02:29:32.406Z,81.33
2019-03-10T02:29:58.513Z,81.33
2019-03-10T02:30:24.621Z,81.71
2019-03-10T02:30:50.812Z,81.43
2019-03-10T02:31:16.913Z,81.71
2019-03-10T02:31:43.049Z,81.43
2019-03-10T02:32:09.180Z,81.71
2019-03-10T02:32:35.311Z,81.33
2019-03-10T02:33:01.472Z,81.33
2019-03-10T02:33:27.694Z,81.33
2019-03-10T02:33:53.754Z,81.24
2019-03-10T02:34:19.895Z,81.33
2019-03-10T02:34:46.024Z,81.33
2019-03-10T02:35:12.157Z,81.52
2019-03-10T02:35:38.339Z,80.76
2019-03-10T02:36:04.464Z,81.05
2019-03-10T02:36:30.595Z,81.62
2019-03-10T02:36:56.700Z,81.62
2019-03-10T02:37:22.820Z,81.43
2019-03-10T02:37:48.949Z,81.14
2019-03-10T02:38:15.057Z,80.76
2019-03-10T02:38:41.168Z,80.66
2019-03-10T02:39:07.265Z,81.05
2019-03-10T02:39:33.373Z,81.05
2019-03-10T02:39:59.477Z,80.95
2019-03-10T02:40:25.613Z,80.66
2019-03-10T02:40:52.742Z,80.86
2019-03-10T02:41:18.849Z,81.05
2019-03-10T02:41:45.024Z,81.24
2019-03-10T02:42:11.134Z,81.29
2019-03-10T02:42:37.248Z,81.14
2019-03-10T02:43:03.447Z,81.24
2019-03-10T02:43:29.584Z,81.43
2019-03-10T02:43:55.782Z,81.43
2019-03-10T02:44:21.917Z,81.62
2019-03-10T02:44:48.044Z,80.86
2019-03-10T02:45:14.155Z,81.05
2019-03-10T02:45:40.287Z,81.38
2019-03-10T02:46:06.409Z,81.33
2019-03-10T02:46:32.544Z,81.33
2019-03-10T02:46:58.696Z,81.52
2019-03-10T02:47:24.804Z,81.43
2019-03-10T02:47:50.976Z,81.52
2019-03-10T02:48:17.104Z,81.43
2019-03-10T02:48:43.209Z,81.24
2019-03-10T02:49:09.316Z,81.33
2019-03-10T02:49:35.438Z,81.52
2019-03-10T02:50:01.574Z,81.24
2019-03-10T02:50:27.683Z,81.62
2019-03-10T02:50:53.853Z,81.62
2019-03-10T02:51:20.016Z,81.62
2019-03-10T02:51:46.125Z,80.66
2019-03-10T02:52:12.256Z,80.76
2019-03-10T02:52:38.368Z,80.76
2019-03-10T02:53:04.562Z,80.95
2019-03-10T02:53:30.658Z,80.66
2019-03-10T02:53:56.765Z,80.86
2019-03-10T02:54:22.894Z,80.86
2019-03-10T02:54:49.061Z,80.95
2019-03-10T02:55:15.195Z,80.38
2019-03-10T02:55:41.331Z,81.05
2019-03-10T02:56:07.494Z,81.33
2019-03-10T02:56:33.647Z,80.86
2019-03-10T02:56:59.756Z,81.05
2019-03-10T02:57:25.850Z,81.14
2019-03-10T02:57:51.957Z,81.05
2019-03-10T02:58:18.094Z,80.66
2019-03-10T02:58:44.242Z,80.86
2019-03-10T02:59:10.409Z,80.57
2019-03-10T02:59:36.507Z,80.86
2019-03-10T03:00:02.639Z,80.86
2019-03-10T03:00:28.755Z,81.71
2019-03-10T03:00:54.871Z,81.71
2019-03-10T03:01:20.995Z,81.52
2019-03-10T03:01:47.237Z,81.24
2019-03-10T03:02:13.339Z,81.62
2019-03-10T03:02:39.446Z,81.81
2019-03-10T03:03:05.556Z,81.43
2019-03-10T03:03:31.660Z,81.24
2019-03-10T03:03:57.767Z,81.33
2019-03-10T03:04:23.877Z,81.52
2019-03-10T03:04:49.976Z,81.05
2019-03-10T03:05:16.293Z,80.76
2019-03-10T03:05:42.433Z,81.43
2019-03-10T03:06:08.560Z,81.52
2019-03-10T03:06:34.670Z,81.71
2019-03-10T03:07:00.777Z,81.52
2019-03-10T03:07:26.874Z,81.43
2019-03-10T03:07:53.053Z,81.71
2019-03-10T03:08:20.162Z,81.14
2019-03-10T03:08:46.327Z,81.52
2019-03-10T03:09:12.435Z,81.81
2019-03-10T03:09:38.569Z,82.48
2019-03-10T03:10:04.682Z,82
2019-03-10T03:10:30.781Z,82.28
2019-03-10T03:10:56.884Z,82.38
2019-03-10T03:11:23.024Z,82.38
2019-03-10T03:11:49.133Z,82
2019-03-10T03:12:15.256Z,81.71
2019-03-10T03:12:41.343Z,81.14
2019-03-10T03:13:07.503Z,81.9
2019-03-10T03:13:33.642Z,81.9
2019-03-10T03:13:59.783Z,82.19
2019-03-10T03:14:25.921Z,82.19
2019-03-10T03:14:52.024Z,82.09
2019-03-10T03:15:18.166Z,81.81
2019-03-10T03:15:44.295Z,81.9
2019-03-10T03:16:10.403Z,82.38
2019-03-10T03:16:36.527Z,82.86
2019-03-10T03:17:03.465Z,82.71
2019-03-10T03:17:29.557Z,83.33
2019-03-10T03:17:55.679Z,83.23
2019-03-10T03:18:21.785Z,83.23
2019-03-10T03:18:47.926Z,83.23
2019-03-10T03:19:14.027Z,83.14
2019-03-10T03:19:40.139Z,83.23
2019-03-10T03:20:06.276Z,83.04
2019-03-10T03:20:32.381Z,83.14
2019-03-10T03:20:58.542Z,83.04
2019-03-10T03:21:24.642Z,83.58
2019-03-10T03:21:52.760Z,83.33
2019-03-10T03:22:18.888Z,83.76
2019-03-10T03:22:45.025Z,84.47
2019-03-10T03:23:11.170Z,83.52
2019-03-10T03:23:37.280Z,84.28
2019-03-10T03:24:03.391Z,84.38
2019-03-10T03:24:29.554Z,84.09
2019-03-10T03:24:55.688Z,84.19
2019-03-10T03:25:21.833Z,84.56
2019-03-10T03:25:47.937Z,83.81
2019-03-10T03:26:14.041Z,84.09
2019-03-10T03:26:40.151Z,83.81
2019-03-10T03:27:06.325Z,83.62
2019-03-10T03:27:32.455Z,83.81
2019-03-10T03:27:58.566Z,84.19
2019-03-10T03:28:24.680Z,83.81
2019-03-10T03:28:50.776Z,84.38
2019-03-10T03:29:16.887Z,84.38
2019-03-10T03:29:42.993Z,84
2019-03-10T03:30:09.174Z,84.28
2019-03-10T03:30:35.291Z,84.28
2019-03-10T03:31:01.432Z,84.38
2019-03-10T03:31:27.614Z,83.62
2019-03-10T03:31:53.711Z,84.19
2019-03-10T03:32:19.815Z,83.81
2019-03-10T03:32:46.044Z,84.19
2019-03-10T03:33:12.220Z,83.9
2019-03-10T03:33:38.367Z,83.9
2019-03-10T03:34:04.527Z,83.52
2019-03-10T03:34:30.774Z,83.62
2019-03-10T03:34:56.932Z,83.9
2019-03-10T03:35:23.021Z,84
2019-03-10T03:35:49.131Z,84.04
2019-03-10T03:36:15.271Z,83.62
2019-03-10T03:36:41.404Z,83.81
2019-03-10T03:37:07.517Z,83.56
2019-03-10T03:37:33.614Z,83.56
2019-03-10T03:37:59.750Z,83.9
2019-03-10T03:38:25.917Z,84
2019-03-10T03:38:52.009Z,83.42
2019-03-10T03:39:18.143Z,83.04
2019-03-10T03:39:44.253Z,83.33
2019-03-10T03:40:10.354Z,83.33
2019-03-10T03:40:36.455Z,83.81
2019-03-10T03:41:02.565Z,83.56
2019-03-10T03:41:28.679Z,83.71
2019-03-10T03:41:54.815Z,83.23
2019-03-10T03:42:20.968Z,83.52
2019-03-10T03:42:47.074Z,84.56
2019-03-10T03:43:13.179Z,83.81
2019-03-10T03:43:39.317Z,84.47
2019-03-10T03:44:05.418Z,83.62
2019-03-10T03:44:31.530Z,84.19
2019-03-10T03:44:57.635Z,84.38
2019-03-10T03:45:23.740Z,83.81
2019-03-10T03:45:49.851Z,84.19
2019-03-10T03:46:15.990Z,84.66
2019-03-10T03:46:42.109Z,85.04
2019-03-10T03:47:08.290Z,85.9
2019-03-10T03:47:34.408Z,85.61
2019-03-10T03:48:00.516Z,85.61
2019-03-10T03:48:26.638Z,85.52
2019-03-10T03:48:52.778Z,85.9
2019-03-10T03:49:18.977Z,85.9
2019-03-10T03:49:45.075Z,85.61
2019-03-10T03:50:11.172Z,85.71
2019-03-10T03:50:37.304Z,85.33
2019-03-10T03:51:03.429Z,85.71
2019-03-10T03:51:29.545Z,85.71
2019-03-10T03:51:55.711Z,85.61
2019-03-10T03:52:21.850Z,85.9
2019-03-10T03:52:47.984Z,85.9
2019-03-10T03:53:14.142Z,86.38
2019-03-10T03:53:40.274Z,86.85
2019-03-10T03:54:06.380Z,87.38
2019-03-10T03:54:32.482Z,87.13
2019-03-10T03:54:58.593Z,87.42
2019-03-10T03:55:24.741Z,88.23
2019-03-10T03:55:50.859Z,88.33
2019-03-10T03:56:16.968Z,88.66
2019-03-10T03:56:43.100Z,89.04
2019-03-10T03:57:09.243Z,88.61
2019-03-10T03:57:35.359Z,88.75
2019-03-10T03:58:01.456Z,89.23
2019-03-10T03:58:27.587Z,88.85
2019-03-10T03:58:53.712Z,87.8
2019-03-10T03:59:19.871Z,88.61
2019-03-10T03:59:46.003Z,88.8
2019-03-10T04:00:12.149Z,88.9
2019-03-10T04:00:38.251Z,88.9
2019-03-10T04:01:04.359Z,88.8
2019-03-10T04:01:30.497Z,89
2019-03-10T04:01:56.626Z,89.18
2019-03-10T04:02:22.763Z,88.52
2019-03-10T04:02:48.967Z,88.9
2019-03-10T04:03:15.119Z,89.09
2019-03-10T04:03:41.219Z,89.56
2019-03-10T04:04:07.324Z,89.18
2019-03-10T04:04:33.461Z,89.66
2019-03-10T04:04:59.598Z,90.23
2019-03-10T04:05:25.700Z,90.8
2019-03-10T04:05:51.807Z,89.47
2019-03-10T04:06:17.937Z,89.28
2019-03-10T04:06:44.076Z,89.75
2019-03-10T04:07:10.203Z,89.47
2019-03-10T04:07:36.320Z,90.33
2019-03-10T04:08:02.447Z,91.08
2019-03-10T04:08:28.578Z,90.7
2019-03-10T04:08:54.678Z,90.89
2019-03-10T04:09:20.792Z,90.33
2019-03-10T04:09:46.903Z,90.33
2019-03-10T04:10:12.990Z,89.75
2019-03-10T04:10:39.129Z,90.14
2019-03-10T04:11:05.233Z,89.28
2019-03-10T04:11:31.359Z,89.09
2019-03-10T04:11:57.468Z,88.8
2019-03-10T04:12:23.603Z,88.52
2019-03-10T04:12:49.716Z,88.61
2019-03-10T04:13:15.821Z,88.61
2019-03-10T04:13:41.960Z,88.9
2019-03-10T04:14:08.068Z,88.33
2019-03-10T04:14:34.171Z,88.8
2019-03-10T04:15:00.485Z,88.04
2019-03-10T04:15:26.563Z,88.8
2019-03-10T04:15:52.753Z,88.52
2019-03-10T04:16:18.877Z,88.71
2019-03-10T04:16:45.042Z,88.13
2019-03-10T04:17:11.200Z,88.13
2019-03-10T04:17:37.325Z,88.61
2019-03-10T04:18:03.429Z,89.18
2019-03-10T04:18:29.568Z,88.8
2019-03-10T04:18:55.670Z,88.8
2019-03-10T04:19:21.777Z,88.04
2019-03-10T04:19:47.885Z,87.66
2019-03-10T04:20:14.044Z,88.13
2019-03-10T04:20:40.146Z,88.04
2019-03-10T04:21:06.256Z,88.42
2019-03-10T04:21:32.356Z,88.8
2019-03-10T04:21:58.499Z,88.42
2019-03-10T04:22:24.602Z,88.9
2019-03-10T04:22:50.729Z,90.42
2019-03-10T04:23:16.911Z,90.89
2019-03-10T04:23:42.994Z,90.7
2019-03-10T04:24:09.129Z,91.18
2019-03-10T04:24:35.237Z,91.08
2019-03-10T04:25:01.342Z,91.18
2019-03-10T04:25:27.447Z,91.18
2019-03-10T04:25:53.582Z,91.08
2019-03-10T04:26:19.684Z,90.7
2019-03-10T04:26:45.787Z,90.14
2019-03-10T04:27:11.890Z,89.94
2019-03-10T04:27:38.005Z,89.56
2019-03-10T04:28:04.124Z,89.66
2019-03-10T04:28:30.231Z,90.42
2019-03-10T04:28:56.337Z,91.56
2019-03-10T04:29:22.438Z,91.94
2019-03-10T04:29:48.572Z,92.03
2019-03-10T04:30:14.678Z,91.75
2019-03-10T04:30:40.784Z,92.51
2019-03-10T04:31:06.889Z,92.03
2019-03-10T04:31:32.991Z,92.03
2019-03-10T04:31:59.099Z,91.47
2019-03-10T04:32:25.206Z,91.47
2019-03-10T04:32:51.328Z,91.18
2019-03-10T04:33:17.470Z,91.18
2019-03-10T04:33:43.580Z,91.18
2019-03-10T04:34:09.690Z,91.32
2019-03-10T04:34:35.829Z,91.18
2019-03-10T04:35:01.890Z,91.37
2019-03-10T04:35:27.995Z,91.42
2019-03-10T04:35:54.101Z,92.32
2019-03-10T04:36:20.202Z,92.51
2019-03-10T04:36:46.307Z,92.03
2019-03-10T04:37:12.408Z,92.51
2019-03-10T04:37:38.542Z,92.8
2019-03-10T04:38:04.647Z,93.18
2019-03-10T04:38:30.785Z,93.08
2019-03-10T04:38:56.913Z,92.94
2019-03-10T04:39:23.022Z,92.89
2019-03-10T04:39:49.126Z,92.13
2019-03-10T04:40:15.231Z,92.03
2019-03-10T04:40:41.328Z,92.22
2019-03-10T04:41:07.438Z,93.08
2019-03-10T04:41:33.548Z,93.18
2019-03-10T04:41:59.653Z,93.41
2019-03-10T04:42:25.752Z,93.79
2019-03-10T04:42:51.860Z,93.37
2019-03-10T04:43:17.974Z,93.46
2019-03-10T04:43:44.078Z,92.89
2019-03-10T04:44:10.183Z,93.37
2019-03-10T04:44:36.470Z,93.41
2019-03-10T04:45:02.562Z,93.46
2019-03-10T04:45:28.718Z,93.37
2019-03-10T04:45:54.827Z,93.18
2019-03-10T04:46:20.929Z,93.37
2019-03-10T04:46:47.032Z,93.27
2019-03-10T04:47:13.132Z,93.37
2019-03-10T04:47:39.246Z,93.37
2019-03-10T04:48:05.343Z,92.89
2019-03-10T04:48:31.449Z,92.99
2019-03-10T04:48:57.577Z,93.08
2019-03-10T04:49:23.690Z,92.61
2019-03-10T04:49:49.794Z,92.8
2019-03-10T04:50:16.521Z,93.27
2019-03-10T04:50:42.667Z,92.99
2019-03-10T04:51:08.777Z,92.8
2019-03-10T04:51:34.880Z,92.89
2019-03-10T04:52:00.988Z,93.94
2019-03-10T04:52:27.095Z,93.37
2019-03-10T04:52:53.208Z,93.55
2019-03-10T04:53:19.369Z,93.37
2019-03-10T04:53:45.467Z,93.65
2019-03-10T04:54:11.579Z,93.75
2019-03-10T04:54:37.685Z,94.03
2019-03-10T04:55:03.818Z,94.22
2019-03-10T04:55:29.920Z,93.75
2019-03-10T04:55:56.033Z,94.03
2019-03-10T04:56:22.138Z,94.13
2019-03-10T04:56:48.237Z,93.65
2019-03-10T04:57:14.807Z,93.94
2019-03-10T04:57:40.909Z,93.37
2019-03-10T04:58:07.020Z,93.27
2019-03-10T04:58:33.125Z,92.99
2019-03-10T04:58:59.236Z,93.79
2019-03-10T04:59:25.338Z,93.41
2019-03-10T04:59:51.480Z,93.75
2019-03-10T05:00:17.585Z,93.51
2019-03-10T05:00:43.712Z,94.08
2019-03-10T05:01:09.818Z,93.51
2019-03-10T05:01:35.925Z,93.13
2019-03-10T05:02:02.059Z,93.23
2019-03-10T05:02:28.163Z,93.41
2019-03-10T05:02:54.292Z,93.55
2019-03-10T05:03:20.405Z,94.03
2019-03-10T05:03:46.508Z,93.18
2019-03-10T05:04:12.612Z,93.98
2019-03-10T05:04:38.747Z,93.6
2019-03-10T05:05:04.855Z,93.7
2019-03-10T05:05:30.960Z,93.7
2019-03-10T05:05:57.067Z,93.75
2019-03-10T05:06:23.174Z,93.7
2019-03-10T05:06:49.277Z,94.18
2019-03-10T05:07:15.382Z,93.94
2019-03-10T05:07:41.490Z,93.6
2019-03-10T05:08:07.601Z,93.18
2019-03-10T05:08:33.707Z,94.27
2019-03-10T05:08:59.814Z,94.98
2019-03-10T05:09:25.949Z,95.56
2019-03-10T05:09:52.053Z,96.22
2019-03-10T05:10:18.162Z,96.31
2019-03-10T05:10:45.260Z,97.17
2019-03-10T05:11:11.393Z,96.36
2019-03-10T05:11:37.499Z,96.5
2019-03-10T05:12:03.611Z,96.79
2019-03-10T05:12:29.711Z,97.27
2019-03-10T05:12:55.819Z,97.74
2019-03-10T05:13:21.926Z,98.22
2019-03-10T05:13:48.034Z,98.5
2019-03-10T05:14:14.162Z,98.6
2019-03-10T05:14:40.272Z,98.97
2019-03-10T05:15:06.374Z,98.12
2019-03-10T05:15:32.496Z,98.88
2019-03-10T05:15:58.632Z,98.79
2019-03-10T05:16:24.735Z,98.31
2019-03-10T05:16:50.837Z,98.6
2019-03-10T05:17:16.979Z,98.83
2019-03-10T05:17:43.111Z,98.6
2019-03-10T05:18:09.214Z,99.84
2019-03-10T05:18:35.321Z,99.99
2019-03-10T05:19:01.424Z,99.99
2019-03-10T05:19:27.536Z,99.99
2019-03-10T05:19:53.642Z,99.99
2019-03-10T05:20:19.747Z,99.99
2019-03-10T05:20:45.859Z,99.99
2019-03-10T05:21:11.992Z,99.99
2019-03-10T05:21:38.089Z,99.99
2019-03-10T05:22:04.200Z,99.99
2019-03-10T05:22:30.336Z,99.99
2019-03-10T05:22:56.443Z,99.99
2019-03-10T05:23:22.542Z,99.99
2019-03-10T05:23:48.687Z,99.99
2019-03-10T05:24:14.820Z,99.99
2019-03-10T05:24:40.989Z,99.99
2019-03-10T05:25:07.099Z,99.99
2019-03-10T05:25:33.224Z,99.99
2019-03-10T05:25:59.322Z,99.99
2019-03-10T05:26:25.430Z,99.99
2019-03-10T05:26:51.571Z,99.99
2019-03-10T05:27:17.678Z,99.99
2019-03-10T05:27:43.787Z,99.84
2019-03-10T05:28:09.890Z,99.84
2019-03-10T05:28:36.000Z,99.26
2019-03-10T05:29:02.104Z,98.97
2019-03-10T05:29:28.236Z,98.97
2019-03-10T05:29:54.345Z,98.31
2019-03-10T05:30:20.449Z,98.69
2019-03-10T05:30:46.558Z,99.36
2019-03-10T05:31:12.662Z,99.74
2019-03-10T05:31:38.766Z,99.74
2019-03-10T05:32:04.879Z,99.99
2019-03-10T05:32:31.855Z,99.99
2019-03-10T05:32:57.957Z,99.74
2019-03-10T05:33:24.071Z,99.84
2019-03-10T05:33:50.164Z,99.93
2019-03-10T05:34:16.281Z,99.99
2019-03-10T05:34:42.385Z,99.84
2019-03-10T05:35:08.517Z,99.55
2019-03-10T05:35:34.619Z,99.93
2019-03-10T05:36:00.737Z,99.16
2019-03-10T05:36:26.844Z,99.07
2019-03-10T05:36:52.946Z,99.16
2019-03-10T05:37:19.053Z,99.31
2019-03-10T05:37:45.161Z,99.16
2019-03-10T05:38:11.261Z,99.12